sensor_id;sensor_type;location;lat;lon;timestamp;temperature;humidity
67890;DHT22;54685;52.082;5.426;2022-11-25T00:01:25;8.40;99.90
67890;DHT22;54685;52.082;5.426;2022-11-25T00:03:54;8.40;99.90
67890;DHT22;54685;52.082;5.426;2022-11-25T00:06:23;8.30;99.90
67890;DHT22;54685;52.082;5.426;2022-11-25T00:08:54;8.30;99.90
67890;DHT22;54685;52.082;5.426;2022-11-25T00:11:21;8.30;99.90
67890;DHT22;54685;52.082;5.426;2022-11-25T00:13:49;8.30;99.90
67890;DHT22;54685;52.082;5.426;2022-11-25T00:16:18;8.20;99.90
67890;DHT22;54685;52.082;5.426;2022-11-25T00:18:46;8.30;99.90
67890;DHT22;54685;52.082;5.426;2022-11-25T00:21:16;8.20;99.90
67890;DHT22;54685;52.082;5.426;2022-11-25T00:23:43;8.20;99.90
67890;DHT22;54685;52.082;5.426;2022-11-25T00:26:13;8.20;99.90
67890;DHT22;54685;52.082;5.426;2022-11-25T00:28:42;8.30;99.90
67890;DHT22;54685;52.082;5.426;2022-11-25T00:31:11;8.30;99.90
67890;DHT22;54685;52.082;5.426;2022-11-25T00:33:39;8.30;99.90
67890;DHT22;54685;52.082;5.426;2022-11-25T00:39:10;8.20;99.90
67890;DHT22;54685;52.082;5.426;2022-11-25T00:41:37;8.20;99.90
67890;DHT22;54685;52.082;5.426;2022-11-25T00:44:23;8.20;99.90
67890;DHT22;54685;52.082;5.426;2022-11-25T00:49:32;8.20;99.90
67890;DHT22;54685;52.082;5.426;2022-11-25T00:51:59;8.20;99.90
67890;DHT22;54685;52.082;5.426;2022-11-25T00:54:26;8.20;99.90
67890;DHT22;54685;52.082;5.426;2022-11-25T00:56:53;8.20;99.90
67890;DHT22;54685;52.082;5.426;2022-11-25T00:59:20;8.20;99.90
67890;DHT22;54685;52.082;5.426;2022-11-25T01:01:47;8.20;99.90
67890;DHT22;54685;52.082;5.426;2022-11-25T01:04:14;8.30;99.90
67890;DHT22;54685;52.082;5.426;2022-11-25T01:06:41;8.30;99.90
67890;DHT22;54685;52.082;5.426;2022-11-25T01:09:10;8.30;99.90
67890;DHT22;54685;52.082;5.426;2022-11-25T01:11:38;8.30;99.90
67890;DHT22;54685;52.082;5.426;2022-11-25T01:14:05;8.30;99.90
67890;DHT22;54685;52.082;5.426;2022-11-25T01:16:32;8.30;99.90
67890;DHT22;54685;52.082;5.426;2022-11-25T01:18:59;8.30;99.90
67890;DHT22;54685;52.082;5.426;2022-11-25T01:21:32;8.30;99.90
67890;DHT22;54685;52.082;5.426;2022-11-25T01:24:00;8.30;99.90
67890;DHT22;54685;52.082;5.426;2022-11-25T01:26:28;8.30;99.90
67890;DHT22;54685;52.082;5.426;2022-11-25T01:29:00;8.30;99.90
67890;DHT22;54685;52.082;5.426;2022-11-25T01:31:29;8.30;99.90
67890;DHT22;54685;52.082;5.426;2022-11-25T01:34:00;8.30;99.90
67890;DHT22;54685;52.082;5.426;2022-11-25T01:36:28;8.40;99.90
67890;DHT22;54685;52.082;5.426;2022-11-25T01:38:56;8.40;99.90
67890;DHT22;54685;52.082;5.426;2022-11-25T01:41:27;8.40;99.90
67890;DHT22;54685;52.082;5.426;2022-11-25T01:49:41;8.50;99.90
67890;DHT22;54685;52.082;5.426;2022-11-25T01:52:32;8.50;99.90
67890;DHT22;54685;52.082;5.426;2022-11-25T01:55:06;8.50;99.90
67890;DHT22;54685;52.082;5.426;2022-11-25T01:57:50;8.50;99.90
67890;DHT22;54685;52.082;5.426;2022-11-25T02:00:20;8.50;99.90
67890;DHT22;54685;52.082;5.426;2022-11-25T02:02:49;8.50;99.90
67890;DHT22;54685;52.082;5.426;2022-11-25T02:05:19;8.50;99.90
67890;DHT22;54685;52.082;5.426;2022-11-25T02:07:48;8.50;99.90
67890;DHT22;54685;52.082;5.426;2022-11-25T02:10:23;8.50;99.90
67890;DHT22;54685;52.082;5.426;2022-11-25T02:12:51;8.50;99.90
67890;DHT22;54685;52.082;5.426;2022-11-25T02:15:19;8.50;99.90
67890;DHT22;54685;52.082;5.426;2022-11-25T02:17:46;8.50;99.90
67890;DHT22;54685;52.082;5.426;2022-11-25T02:20:15;8.50;99.90
67890;DHT22;54685;52.082;5.426;2022-11-25T02:22:59;8.50;99.90
67890;DHT22;54685;52.082;5.426;2022-11-25T02:25:37;8.50;99.90
67890;DHT22;54685;52.082;5.426;2022-11-25T02:28:14;8.50;99.90
67890;DHT22;54685;52.082;5.426;2022-11-25T02:30:42;8.50;99.90
67890;DHT22;54685;52.082;5.426;2022-11-25T02:33:10;8.50;99.90
67890;DHT22;54685;52.082;5.426;2022-11-25T02:35:39;8.50;99.90
67890;DHT22;54685;52.082;5.426;2022-11-25T02:38:18;8.50;99.90
67890;DHT22;54685;52.082;5.426;2022-11-25T02:40:48;8.50;99.90
67890;DHT22;54685;52.082;5.426;2022-11-25T02:43:17;8.60;99.90
67890;DHT22;54685;52.082;5.426;2022-11-25T02:46:01;8.60;99.90
67890;DHT22;54685;52.082;5.426;2022-11-25T02:48:31;8.60;99.90
67890;DHT22;54685;52.082;5.426;2022-11-25T02:51:20;8.60;99.90
67890;DHT22;54685;52.082;5.426;2022-11-25T02:53:47;8.60;99.90
67890;DHT22;54685;52.082;5.426;2022-11-25T02:56:22;8.60;99.90
67890;DHT22;54685;52.082;5.426;2022-11-25T02:58:48;8.70;99.90
67890;DHT22;54685;52.082;5.426;2022-11-25T03:01:15;8.70;99.90
67890;DHT22;54685;52.082;5.426;2022-11-25T03:03:42;8.70;99.90
67890;DHT22;54685;52.082;5.426;2022-11-25T03:06:09;8.70;99.90
67890;DHT22;54685;52.082;5.426;2022-11-25T03:08:36;8.70;99.90
67890;DHT22;54685;52.082;5.426;2022-11-25T03:11:07;8.70;99.90
67890;DHT22;54685;52.082;5.426;2022-11-25T03:13:33;8.80;99.90
67890;DHT22;54685;52.082;5.426;2022-11-25T03:16:02;8.80;99.90
67890;DHT22;54685;52.082;5.426;2022-11-25T03:18:28;8.80;99.90
67890;DHT22;54685;52.082;5.426;2022-11-25T03:20:55;8.70;99.90
67890;DHT22;54685;52.082;5.426;2022-11-25T03:23:24;8.80;99.90
67890;DHT22;54685;52.082;5.426;2022-11-25T03:25:53;8.80;99.90
67890;DHT22;54685;52.082;5.426;2022-11-25T03:28:20;8.80;99.90
67890;DHT22;54685;52.082;5.426;2022-11-25T03:30:47;8.80;99.90
67890;DHT22;54685;52.082;5.426;2022-11-25T03:33:14;8.80;99.90
67890;DHT22;54685;52.082;5.426;2022-11-25T03:35:40;8.80;99.90
67890;DHT22;54685;52.082;5.426;2022-11-25T03:38:07;8.80;99.90
67890;DHT22;54685;52.082;5.426;2022-11-25T03:40:36;8.80;99.90
67890;DHT22;54685;52.082;5.426;2022-11-25T03:43:03;8.80;99.90
67890;DHT22;54685;52.082;5.426;2022-11-25T03:45:30;8.80;99.90
67890;DHT22;54685;52.082;5.426;2022-11-25T03:48:00;8.80;99.90
67890;DHT22;54685;52.082;5.426;2022-11-25T03:50:27;8.80;99.90
67890;DHT22;54685;52.082;5.426;2022-11-25T03:52:54;8.80;99.90
67890;DHT22;54685;52.082;5.426;2022-11-25T03:55:21;8.80;99.90
67890;DHT22;54685;52.082;5.426;2022-11-25T03:57:49;8.80;99.90
67890;DHT22;54685;52.082;5.426;2022-11-25T04:00:16;8.80;99.90
67890;DHT22;54685;52.082;5.426;2022-11-25T04:02:43;8.80;99.90
67890;DHT22;54685;52.082;5.426;2022-11-25T04:05:12;8.80;99.90
67890;DHT22;54685;52.082;5.426;2022-11-25T04:07:39;8.80;99.90
67890;DHT22;54685;52.082;5.426;2022-11-25T04:10:08;8.80;99.90
67890;DHT22;54685;52.082;5.426;2022-11-25T04:12:35;8.80;99.90
67890;DHT22;54685;52.082;5.426;2022-11-25T04:15:18;8.80;99.90
67890;DHT22;54685;52.082;5.426;2022-11-25T04:17:49;8.70;99.90
67890;DHT22;54685;52.082;5.426;2022-11-25T04:20:16;8.70;99.90
67890;DHT22;54685;52.082;5.426;2022-11-25T04:22:50;8.70;99.90
67890;DHT22;54685;52.082;5.426;2022-11-25T04:25:18;8.70;99.90
67890;DHT22;54685;52.082;5.426;2022-11-25T04:27:45;8.70;99.90
67890;DHT22;54685;52.082;5.426;2022-11-25T04:30:15;8.70;99.90
67890;DHT22;54685;52.082;5.426;2022-11-25T04:32:43;8.70;99.90
67890;DHT22;54685;52.082;5.426;2022-11-25T04:35:11;8.70;99.90
67890;DHT22;54685;52.082;5.426;2022-11-25T04:37:42;8.70;99.90
67890;DHT22;54685;52.082;5.426;2022-11-25T04:40:09;8.70;99.90
67890;DHT22;54685;52.082;5.426;2022-11-25T04:42:36;8.70;99.90
67890;DHT22;54685;52.082;5.426;2022-11-25T04:45:14;8.60;99.90
67890;DHT22;54685;52.082;5.426;2022-11-25T04:47:52;8.60;99.90
67890;DHT22;54685;52.082;5.426;2022-11-25T04:50:21;8.60;99.90
67890;DHT22;54685;52.082;5.426;2022-11-25T04:53:09;8.60;99.90
67890;DHT22;54685;52.082;5.426;2022-11-25T04:55:38;8.60;99.90
67890;DHT22;54685;52.082;5.426;2022-11-25T04:58:10;8.60;99.90
67890;DHT22;54685;52.082;5.426;2022-11-25T05:00:38;8.60;99.90
67890;DHT22;54685;52.082;5.426;2022-11-25T05:03:06;8.50;99.90
67890;DHT22;54685;52.082;5.426;2022-11-25T05:05:37;8.50;99.90
67890;DHT22;54685;52.082;5.426;2022-11-25T05:08:04;8.50;99.90
67890;DHT22;54685;52.082;5.426;2022-11-25T05:10:31;8.50;99.90
67890;DHT22;54685;52.082;5.426;2022-11-25T05:12:59;8.40;99.90
67890;DHT22;54685;52.082;5.426;2022-11-25T05:15:25;8.40;99.90
67890;DHT22;54685;52.082;5.426;2022-11-25T05:17:53;8.30;99.90
67890;DHT22;54685;52.082;5.426;2022-11-25T05:20:34;8.30;99.90
67890;DHT22;54685;52.082;5.426;2022-11-25T05:23:02;8.30;99.90
67890;DHT22;54685;52.082;5.426;2022-11-25T05:25:29;8.30;99.90
67890;DHT22;54685;52.082;5.426;2022-11-25T05:28:08;8.20;99.90
67890;DHT22;54685;52.082;5.426;2022-11-25T05:30:34;8.30;99.90
67890;DHT22;54685;52.082;5.426;2022-11-25T05:33:01;8.20;99.90
67890;DHT22;54685;52.082;5.426;2022-11-25T05:35:28;8.20;99.90
67890;DHT22;54685;52.082;5.426;2022-11-25T05:37:55;8.20;99.90
67890;DHT22;54685;52.082;5.426;2022-11-25T05:40:21;8.20;99.90
67890;DHT22;54685;52.082;5.426;2022-11-25T05:42:59;8.20;99.90
67890;DHT22;54685;52.082;5.426;2022-11-25T05:45:27;8.10;99.90
67890;DHT22;54685;52.082;5.426;2022-11-25T05:47:54;8.10;99.90
67890;DHT22;54685;52.082;5.426;2022-11-25T05:50:24;8.10;99.90
67890;DHT22;54685;52.082;5.426;2022-11-25T05:53:14;8.10;99.90
67890;DHT22;54685;52.082;5.426;2022-11-25T05:55:43;8.10;99.90
67890;DHT22;54685;52.082;5.426;2022-11-25T05:58:22;8.10;99.90
67890;DHT22;54685;52.082;5.426;2022-11-25T06:00:52;8.10;99.90
67890;DHT22;54685;52.082;5.426;2022-11-25T06:03:27;8.00;99.90
67890;DHT22;54685;52.082;5.426;2022-11-25T06:05:55;8.00;99.90
67890;DHT22;54685;52.082;5.426;2022-11-25T06:08:22;8.00;99.90
67890;DHT22;54685;52.082;5.426;2022-11-25T06:10:49;8.00;99.90
67890;DHT22;54685;52.082;5.426;2022-11-25T06:13:16;8.00;99.90
67890;DHT22;54685;52.082;5.426;2022-11-25T06:15:44;8.00;99.90
67890;DHT22;54685;52.082;5.426;2022-11-25T06:18:15;8.00;99.90
67890;DHT22;54685;52.082;5.426;2022-11-25T06:20:43;8.00;99.90
67890;DHT22;54685;52.082;5.426;2022-11-25T06:23:09;8.00;99.90
67890;DHT22;54685;52.082;5.426;2022-11-25T06:25:37;8.00;99.90
67890;DHT22;54685;52.082;5.426;2022-11-25T06:28:05;8.00;99.90
67890;DHT22;54685;52.082;5.426;2022-11-25T06:30:43;8.00;99.90
67890;DHT22;54685;52.082;5.426;2022-11-25T06:33:24;8.00;99.90
67890;DHT22;54685;52.082;5.426;2022-11-25T06:35:51;8.00;99.90
67890;DHT22;54685;52.082;5.426;2022-11-25T06:38:18;8.00;99.90
67890;DHT22;54685;52.082;5.426;2022-11-25T06:40:44;7.90;99.90
67890;DHT22;54685;52.082;5.426;2022-11-25T06:43:11;7.90;99.90
67890;DHT22;54685;52.082;5.426;2022-11-25T06:45:38;7.90;99.90
67890;DHT22;54685;52.082;5.426;2022-11-25T06:48:05;7.90;99.90
67890;DHT22;54685;52.082;5.426;2022-11-25T06:50:31;7.90;99.90
67890;DHT22;54685;52.082;5.426;2022-11-25T06:53:00;7.90;99.90
67890;DHT22;54685;52.082;5.426;2022-11-25T06:55:27;7.80;99.90
67890;DHT22;54685;52.082;5.426;2022-11-25T06:57:53;7.80;99.90
67890;DHT22;54685;52.082;5.426;2022-11-25T07:00:40;7.80;99.90
67890;DHT22;54685;52.082;5.426;2022-11-25T07:03:07;7.80;99.90
67890;DHT22;54685;52.082;5.426;2022-11-25T07:05:33;7.80;99.90
67890;DHT22;54685;52.082;5.426;2022-11-25T07:08:00;7.80;99.90
67890;DHT22;54685;52.082;5.426;2022-11-25T07:10:27;7.80;99.90
67890;DHT22;54685;52.082;5.426;2022-11-25T07:12:54;7.80;99.90
67890;DHT22;54685;52.082;5.426;2022-11-25T07:15:20;7.80;99.90
67890;DHT22;54685;52.082;5.426;2022-11-25T07:17:47;7.80;99.90
67890;DHT22;54685;52.082;5.426;2022-11-25T07:20:14;7.70;99.90
67890;DHT22;54685;52.082;5.426;2022-11-25T07:22:40;7.70;99.90
67890;DHT22;54685;52.082;5.426;2022-11-25T07:25:08;7.70;99.90
67890;DHT22;54685;52.082;5.426;2022-11-25T07:27:34;7.70;99.90
67890;DHT22;54685;52.082;5.426;2022-11-25T07:30:01;7.70;99.90
67890;DHT22;54685;52.082;5.426;2022-11-25T07:32:48;7.70;99.90
67890;DHT22;54685;52.082;5.426;2022-11-25T07:35:14;7.70;99.90
67890;DHT22;54685;52.082;5.426;2022-11-25T07:37:41;7.70;99.90
67890;DHT22;54685;52.082;5.426;2022-11-25T07:40:09;7.60;99.90
67890;DHT22;54685;52.082;5.426;2022-11-25T07:42:36;7.60;99.90
67890;DHT22;54685;52.082;5.426;2022-11-25T07:45:03;7.60;99.90
67890;DHT22;54685;52.082;5.426;2022-11-25T07:47:42;7.60;99.90
67890;DHT22;54685;52.082;5.426;2022-11-25T07:50:09;7.60;99.90
67890;DHT22;54685;52.082;5.426;2022-11-25T07:52:37;7.60;99.90
67890;DHT22;54685;52.082;5.426;2022-11-25T07:55:05;7.60;99.90
67890;DHT22;54685;52.082;5.426;2022-11-25T07:57:32;7.60;99.90
67890;DHT22;54685;52.082;5.426;2022-11-25T07:59:59;7.60;99.90
67890;DHT22;54685;52.082;5.426;2022-11-25T08:02:26;7.60;99.90
67890;DHT22;54685;52.082;5.426;2022-11-25T08:04:53;7.60;99.90
67890;DHT22;54685;52.082;5.426;2022-11-25T08:07:20;7.60;99.90
67890;DHT22;54685;52.082;5.426;2022-11-25T08:09:47;7.70;99.90
67890;DHT22;54685;52.082;5.426;2022-11-25T08:12:13;7.70;99.90
67890;DHT22;54685;52.082;5.426;2022-11-25T08:14:40;7.70;99.90
67890;DHT22;54685;52.082;5.426;2022-11-25T08:17:07;7.70;99.90
67890;DHT22;54685;52.082;5.426;2022-11-25T08:19:34;7.70;99.90
67890;DHT22;54685;52.082;5.426;2022-11-25T08:22:02;7.70;99.90
67890;DHT22;54685;52.082;5.426;2022-11-25T08:24:29;7.70;99.90
67890;DHT22;54685;52.082;5.426;2022-11-25T08:26:55;7.70;99.90
67890;DHT22;54685;52.082;5.426;2022-11-25T08:29:24;7.80;99.90
67890;DHT22;54685;52.082;5.426;2022-11-25T08:31:51;7.80;99.90
67890;DHT22;54685;52.082;5.426;2022-11-25T08:34:21;7.80;99.90
67890;DHT22;54685;52.082;5.426;2022-11-25T08:36:51;7.80;99.90
67890;DHT22;54685;52.082;5.426;2022-11-25T08:39:20;7.80;99.90
67890;DHT22;54685;52.082;5.426;2022-11-25T08:42:07;7.90;99.90
67890;DHT22;54685;52.082;5.426;2022-11-25T08:44:35;7.90;99.90
67890;DHT22;54685;52.082;5.426;2022-11-25T08:47:01;7.90;99.90
67890;DHT22;54685;52.082;5.426;2022-11-25T08:49:28;8.00;99.90
67890;DHT22;54685;52.082;5.426;2022-11-25T08:52:01;8.00;99.90
67890;DHT22;54685;52.082;5.426;2022-11-25T08:54:28;8.00;99.90
67890;DHT22;54685;52.082;5.426;2022-11-25T08:56:56;8.00;99.90
67890;DHT22;54685;52.082;5.426;2022-11-25T08:59:23;8.10;99.90
67890;DHT22;54685;52.082;5.426;2022-11-25T09:01:50;8.10;99.90
67890;DHT22;54685;52.082;5.426;2022-11-25T09:04:17;8.10;99.90
67890;DHT22;54685;52.082;5.426;2022-11-25T09:06:44;8.10;99.90
67890;DHT22;54685;52.082;5.426;2022-11-25T09:09:11;8.20;99.90
67890;DHT22;54685;52.082;5.426;2022-11-25T09:11:38;8.20;99.90
67890;DHT22;54685;52.082;5.426;2022-11-25T09:14:05;8.20;99.90
67890;DHT22;54685;52.082;5.426;2022-11-25T09:16:32;8.20;99.90
67890;DHT22;54685;52.082;5.426;2022-11-25T09:18:59;8.30;99.90
67890;DHT22;54685;52.082;5.426;2022-11-25T09:21:26;8.30;99.90
67890;DHT22;54685;52.082;5.426;2022-11-25T09:23:53;8.40;99.90
67890;DHT22;54685;52.082;5.426;2022-11-25T09:26:25;8.40;99.90
67890;DHT22;54685;52.082;5.426;2022-11-25T09:28:53;8.50;99.90
67890;DHT22;54685;52.082;5.426;2022-11-25T09:31:20;8.50;99.90
67890;DHT22;54685;52.082;5.426;2022-11-25T09:33:48;8.50;99.90
67890;DHT22;54685;52.082;5.426;2022-11-25T09:36:18;8.60;99.90
67890;DHT22;54685;52.082;5.426;2022-11-25T09:38:45;8.70;99.90
67890;DHT22;54685;52.082;5.426;2022-11-25T09:44:45;8.70;99.90
67890;DHT22;54685;52.082;5.426;2022-11-25T09:50:47;8.70;99.90
67890;DHT22;54685;52.082;5.426;2022-11-25T09:53:38;8.80;99.90
67890;DHT22;54685;52.082;5.426;2022-11-25T09:56:17;8.80;99.90
67890;DHT22;54685;52.082;5.426;2022-11-25T09:58:52;8.80;99.90
67890;DHT22;54685;52.082;5.426;2022-11-25T10:01:24;8.90;99.90
67890;DHT22;54685;52.082;5.426;2022-11-25T10:04:01;8.90;99.90
67890;DHT22;54685;52.082;5.426;2022-11-25T10:06:39;9.00;99.90
67890;DHT22;54685;52.082;5.426;2022-11-25T10:09:14;9.00;99.90
67890;DHT22;54685;52.082;5.426;2022-11-25T10:11:51;9.00;99.90
67890;DHT22;54685;52.082;5.426;2022-11-25T10:14:30;9.10;99.90
67890;DHT22;54685;52.082;5.426;2022-11-25T10:20:28;9.20;99.90
67890;DHT22;54685;52.082;5.426;2022-11-25T10:23:24;9.30;99.90
67890;DHT22;54685;52.082;5.426;2022-11-25T10:26:01;9.30;99.90
67890;DHT22;54685;52.082;5.426;2022-11-25T10:28:31;9.40;99.90
67890;DHT22;54685;52.082;5.426;2022-11-25T10:31:19;9.50;99.90
67890;DHT22;54685;52.082;5.426;2022-11-25T10:33:50;9.60;99.90
67890;DHT22;54685;52.082;5.426;2022-11-25T10:36:31;9.70;99.90
67890;DHT22;54685;52.082;5.426;2022-11-25T10:39:12;10.10;99.90
67890;DHT22;54685;52.082;5.426;2022-11-25T10:41:57;10.30;99.90
67890;DHT22;54685;52.082;5.426;2022-11-25T10:44:35;10.40;99.90
67890;DHT22;54685;52.082;5.426;2022-11-25T10:47:32;10.50;99.90
67890;DHT22;54685;52.082;5.426;2022-11-25T10:50:12;10.60;99.90
67890;DHT22;54685;52.082;5.426;2022-11-25T10:52:47;10.90;99.90
67890;DHT22;54685;52.082;5.426;2022-11-25T10:55:20;11.70;99.90
67890;DHT22;54685;52.082;5.426;2022-11-25T10:57:47;12.40;99.90
67890;DHT22;54685;52.082;5.426;2022-11-25T11:00:35;13.10;99.90
67890;DHT22;54685;52.082;5.426;2022-11-25T11:03:24;13.70;99.90
67890;DHT22;54685;52.082;5.426;2022-11-25T11:05:52;14.00;99.90
67890;DHT22;54685;52.082;5.426;2022-11-25T11:08:25;14.30;99.90
67890;DHT22;54685;52.082;5.426;2022-11-25T11:13:38;14.70;99.90
67890;DHT22;54685;52.082;5.426;2022-11-25T11:16:20;14.70;99.90
67890;DHT22;54685;52.082;5.426;2022-11-25T11:18:48;14.60;99.90
67890;DHT22;54685;52.082;5.426;2022-11-25T11:21:29;14.40;99.90
67890;DHT22;54685;52.082;5.426;2022-11-25T11:23:56;14.30;99.90
67890;DHT22;54685;52.082;5.426;2022-11-25T11:26:26;13.90;99.90
67890;DHT22;54685;52.082;5.426;2022-11-25T11:28:59;13.60;99.90
67890;DHT22;54685;52.082;5.426;2022-11-25T11:31:33;13.30;99.90
67890;DHT22;54685;52.082;5.426;2022-11-25T11:37:28;13.10;99.90
67890;DHT22;54685;52.082;5.426;2022-11-25T11:40:35;13.00;99.90
67890;DHT22;54685;52.082;5.426;2022-11-25T11:48:44;13.00;99.90
67890;DHT22;54685;52.082;5.426;2022-11-25T12:02:28;13.20;99.90
67890;DHT22;54685;52.082;5.426;2022-11-25T12:16:04;13.80;99.90
67890;DHT22;54685;52.082;5.426;2022-11-25T12:27:12;14.10;99.90
67890;DHT22;54685;52.082;5.426;2022-11-25T12:29:46;13.90;99.90
67890;DHT22;54685;52.082;5.426;2022-11-25T12:37:43;13.50;99.90
67890;DHT22;54685;52.082;5.426;2022-11-25T12:43:04;13.30;99.90
67890;DHT22;54685;52.082;5.426;2022-11-25T12:45:32;13.20;99.90
67890;DHT22;54685;52.082;5.426;2022-11-25T12:47:59;13.00;99.90
67890;DHT22;54685;52.082;5.426;2022-11-25T12:53:37;12.60;99.90
67890;DHT22;54685;52.082;5.426;2022-11-25T12:56:13;12.50;99.90
67890;DHT22;54685;52.082;5.426;2022-11-25T13:08:05;12.10;99.90
67890;DHT22;54685;52.082;5.426;2022-11-25T13:13:49;12.30;99.90
67890;DHT22;54685;52.082;5.426;2022-11-25T13:16:19;12.30;99.90
67890;DHT22;54685;52.082;5.426;2022-11-25T13:18:49;12.10;99.90
67890;DHT22;54685;52.082;5.426;2022-11-25T13:21:17;12.10;99.90
67890;DHT22;54685;52.082;5.426;2022-11-25T13:26:32;12.00;99.90
67890;DHT22;54685;52.082;5.426;2022-11-25T13:34:32;12.10;99.90
67890;DHT22;54685;52.082;5.426;2022-11-25T13:39:46;12.30;99.90
67890;DHT22;54685;52.082;5.426;2022-11-25T13:42:24;12.40;99.90
67890;DHT22;54685;52.082;5.426;2022-11-25T13:44:59;12.50;99.90
67890;DHT22;54685;52.082;5.426;2022-11-25T13:47:40;12.50;99.90
67890;DHT22;54685;52.082;5.426;2022-11-25T13:52:59;12.40;99.90
67890;DHT22;54685;52.082;5.426;2022-11-25T13:55:35;12.20;99.90
67890;DHT22;54685;52.082;5.426;2022-11-25T14:11:30;11.90;99.90
67890;DHT22;54685;52.082;5.426;2022-11-25T14:25:22;11.70;99.90
67890;DHT22;54685;52.082;5.426;2022-11-25T14:30:46;11.60;99.90
67890;DHT22;54685;52.082;5.426;2022-11-25T14:33:35;11.60;99.90
67890;DHT22;54685;52.082;5.426;2022-11-25T14:36:09;11.60;99.90
67890;DHT22;54685;52.082;5.426;2022-11-25T14:41:16;11.50;99.90
67890;DHT22;54685;52.082;5.426;2022-11-25T14:43:51;11.50;99.90
67890;DHT22;54685;52.082;5.426;2022-11-25T14:46:21;11.50;99.90
67890;DHT22;54685;52.082;5.426;2022-11-25T14:48:59;11.50;99.90
67890;DHT22;54685;52.082;5.426;2022-11-25T14:51:36;11.50;99.90
67890;DHT22;54685;52.082;5.426;2022-11-25T14:54:08;11.50;99.90
67890;DHT22;54685;52.082;5.426;2022-11-25T14:56:36;11.60;99.90
67890;DHT22;54685;52.082;5.426;2022-11-25T14:59:03;11.60;99.90
67890;DHT22;54685;52.082;5.426;2022-11-25T15:01:31;11.60;99.90
67890;DHT22;54685;52.082;5.426;2022-11-25T15:06:41;11.60;99.90
67890;DHT22;54685;52.082;5.426;2022-11-25T15:09:23;11.60;99.90
67890;DHT22;54685;52.082;5.426;2022-11-25T15:11:59;11.60;99.90
67890;DHT22;54685;52.082;5.426;2022-11-25T15:14:36;11.50;99.90
67890;DHT22;54685;52.082;5.426;2022-11-25T15:17:08;11.50;99.90
67890;DHT22;54685;52.082;5.426;2022-11-25T15:19:42;11.50;99.90
67890;DHT22;54685;52.082;5.426;2022-11-25T15:22:14;11.50;99.90
67890;DHT22;54685;52.082;5.426;2022-11-25T15:24:52;11.50;99.90
67890;DHT22;54685;52.082;5.426;2022-11-25T15:27:26;11.50;99.90
67890;DHT22;54685;52.082;5.426;2022-11-25T15:29:55;11.50;99.90
67890;DHT22;54685;52.082;5.426;2022-11-25T15:32:26;11.50;99.90
67890;DHT22;54685;52.082;5.426;2022-11-25T15:34:55;11.40;99.90
67890;DHT22;54685;52.082;5.426;2022-11-25T15:37:22;11.40;99.90
67890;DHT22;54685;52.082;5.426;2022-11-25T15:42:59;11.20;99.90
67890;DHT22;54685;52.082;5.426;2022-11-25T15:45:31;11.20;99.90
67890;DHT22;54685;52.082;5.426;2022-11-25T15:47:59;11.10;99.90
67890;DHT22;54685;52.082;5.426;2022-11-25T15:50:26;11.00;99.90
67890;DHT22;54685;52.082;5.426;2022-11-25T15:52:55;10.90;99.90
67890;DHT22;54685;52.082;5.426;2022-11-25T15:55:37;10.80;99.90
67890;DHT22;54685;52.082;5.426;2022-11-25T16:00:37;10.80;99.90
67890;DHT22;54685;52.082;5.426;2022-11-25T16:03:20;10.70;99.90
67890;DHT22;54685;52.082;5.426;2022-11-25T16:05:54;10.70;99.90
67890;DHT22;54685;52.082;5.426;2022-11-25T16:08:33;10.70;99.90
67890;DHT22;54685;52.082;5.426;2022-11-25T16:11:11;10.70;99.90
67890;DHT22;54685;52.082;5.426;2022-11-25T16:13:40;10.70;99.90
67890;DHT22;54685;52.082;5.426;2022-11-25T16:24:25;10.50;99.90
67890;DHT22;54685;52.082;5.426;2022-11-25T16:32:29;10.30;99.90
67890;DHT22;54685;52.082;5.426;2022-11-25T16:35:05;10.30;99.90
67890;DHT22;54685;52.082;5.426;2022-11-25T16:37:35;10.30;99.90
67890;DHT22;54685;52.082;5.426;2022-11-25T16:40:03;10.20;99.90
67890;DHT22;54685;52.082;5.426;2022-11-25T16:42:31;10.20;99.90
67890;DHT22;54685;52.082;5.426;2022-11-25T16:44:59;10.20;99.90
67890;DHT22;54685;52.082;5.426;2022-11-25T16:47:26;10.10;99.90
67890;DHT22;54685;52.082;5.426;2022-11-25T16:49:53;10.10;99.90
67890;DHT22;54685;52.082;5.426;2022-11-25T16:52:20;10.10;99.90
67890;DHT22;54685;52.082;5.426;2022-11-25T16:54:47;10.00;99.90
67890;DHT22;54685;52.082;5.426;2022-11-25T16:57:19;10.00;99.90
67890;DHT22;54685;52.082;5.426;2022-11-25T16:59:48;9.90;99.90
67890;DHT22;54685;52.082;5.426;2022-11-25T17:02:21;9.90;99.90
67890;DHT22;54685;52.082;5.426;2022-11-25T17:04:48;9.90;99.90
67890;DHT22;54685;52.082;5.426;2022-11-25T17:07:17;9.80;99.90
67890;DHT22;54685;52.082;5.426;2022-11-25T17:10:00;9.80;99.90
67890;DHT22;54685;52.082;5.426;2022-11-25T17:12:30;9.80;99.90
67890;DHT22;54685;52.082;5.426;2022-11-25T17:14:58;9.80;99.90
67890;DHT22;54685;52.082;5.426;2022-11-25T17:17:26;9.70;99.90
67890;DHT22;54685;52.082;5.426;2022-11-25T17:19:53;9.70;99.90
67890;DHT22;54685;52.082;5.426;2022-11-25T17:22:23;9.60;99.90
67890;DHT22;54685;52.082;5.426;2022-11-25T17:24:50;9.50;99.90
67890;DHT22;54685;52.082;5.426;2022-11-25T17:27:28;9.50;99.90
67890;DHT22;54685;52.082;5.426;2022-11-25T17:29:57;9.50;99.90
67890;DHT22;54685;52.082;5.426;2022-11-25T17:32:24;9.50;99.90
67890;DHT22;54685;52.082;5.426;2022-11-25T17:34:52;9.50;99.90
67890;DHT22;54685;52.082;5.426;2022-11-25T17:37:23;9.40;99.90
67890;DHT22;54685;52.082;5.426;2022-11-25T17:39:52;9.40;99.90
67890;DHT22;54685;52.082;5.426;2022-11-25T17:42:28;9.30;99.90
67890;DHT22;54685;52.082;5.426;2022-11-25T17:44:56;9.30;99.90
67890;DHT22;54685;52.082;5.426;2022-11-25T17:47:23;9.30;99.90
67890;DHT22;54685;52.082;5.426;2022-11-25T17:49:50;9.30;99.90
67890;DHT22;54685;52.082;5.426;2022-11-25T17:52:17;9.30;99.90
67890;DHT22;54685;52.082;5.426;2022-11-25T17:54:44;9.20;99.90
67890;DHT22;54685;52.082;5.426;2022-11-25T17:57:16;9.20;99.90
67890;DHT22;54685;52.082;5.426;2022-11-25T17:59:45;9.20;99.90
67890;DHT22;54685;52.082;5.426;2022-11-25T18:02:20;9.10;99.90
67890;DHT22;54685;52.082;5.426;2022-11-25T18:04:48;9.10;99.90
67890;DHT22;54685;52.082;5.426;2022-11-25T18:07:15;9.10;99.90
67890;DHT22;54685;52.082;5.426;2022-11-25T18:09:43;9.10;99.90
67890;DHT22;54685;52.082;5.426;2022-11-25T18:12:25;9.00;99.90
67890;DHT22;54685;52.082;5.426;2022-11-25T18:14:54;9.00;99.90
67890;DHT22;54685;52.082;5.426;2022-11-25T18:17:21;8.90;99.90
67890;DHT22;54685;52.082;5.426;2022-11-25T18:19:48;8.90;99.90
67890;DHT22;54685;52.082;5.426;2022-11-25T18:22:21;8.80;99.90
67890;DHT22;54685;52.082;5.426;2022-11-25T18:24:52;8.70;99.90
67890;DHT22;54685;52.082;5.426;2022-11-25T18:27:24;8.60;99.90
67890;DHT22;54685;52.082;5.426;2022-11-25T18:29:52;8.50;99.90
67890;DHT22;54685;52.082;5.426;2022-11-25T18:32:20;8.40;99.90
67890;DHT22;54685;52.082;5.426;2022-11-25T18:34:49;8.40;99.90
67890;DHT22;54685;52.082;5.426;2022-11-25T18:37:16;8.30;99.90
67890;DHT22;54685;52.082;5.426;2022-11-25T18:39:43;8.30;99.90